sensor_id;sensor_type;location;lat;lon;timestamp;P1;durP1;ratioP1;P2;durP2;ratioP2
76846;SDS011;65813;49.546;8.644;2024-01-10T04:46:50;8.68;;;4.07;;
76846;SDS011;65813;49.546;8.644;2024-01-10T04:50:51;8.45;;;5.10;;
76846;SDS011;65813;49.546;8.644;2024-01-10T04:54:51;12.37;;;4.87;;
76846;SDS011;65813;49.546;8.644;2024-01-10T04:58:52;10.32;;;4.53;;
76846;SDS011;65813;49.546;8.644;2024-01-10T05:02:52;11.35;;;4.85;;
76846;SDS011;65813;49.546;8.644;2024-01-10T05:06:53;12.30;;;5.00;;
76846;SDS011;65813;49.546;8.644;2024-01-10T05:10:53;11.23;;;5.03;;
76846;SDS011;65813;49.546;8.644;2024-01-10T05:14:54;10.00;;;4.82;;
76846;SDS011;65813;49.546;8.644;2024-01-10T05:18:54;10.23;;;4.53;;
76846;SDS011;65813;49.546;8.644;2024-01-10T05:22:54;13.07;;;5.57;;
76846;SDS011;65813;49.546;8.644;2024-01-10T05:26:58;12.20;;;5.03;;
76846;SDS011;65813;49.546;8.644;2024-01-10T05:30:58;13.73;;;5.87;;
76846;SDS011;65813;49.546;8.644;2024-01-10T05:34:59;8.88;;;4.95;;
76846;SDS011;65813;49.546;8.644;2024-01-10T05:38:59;14.37;;;5.17;;
76846;SDS011;65813;49.546;8.644;2024-01-10T05:42:59;16.90;;;6.30;;
76846;SDS011;65813;49.546;8.644;2024-01-10T05:47:00;9.23;;;3.97;;
76846;SDS011;65813;49.546;8.644;2024-01-10T05:51:00;10.83;;;5.03;;
76846;SDS011;65813;49.546;8.644;2024-01-10T05:55:01;10.32;;;4.60;;
76846;SDS011;65813;49.546;8.644;2024-01-10T05:59:02;12.70;;;4.40;;
76846;SDS011;65813;49.546;8.644;2024-01-10T06:03:03;10.73;;;4.53;;
76846;SDS011;65813;49.546;8.644;2024-01-10T06:07:03;10.75;;;5.30;;
76846;SDS011;65813;49.546;8.644;2024-01-10T06:11:04;14.60;;;5.97;;
76846;SDS011;65813;49.546;8.644;2024-01-10T06:15:08;15.23;;;6.63;;
76846;SDS011;65813;49.546;8.644;2024-01-10T06:19:09;12.18;;;5.45;;
76846;SDS011;65813;49.546;8.644;2024-01-10T06:23:10;13.00;;;5.68;;
76846;SDS011;65813;49.546;8.644;2024-01-10T06:27:10;12.77;;;5.67;;
76846;SDS011;65813;49.546;8.644;2024-01-10T06:31:11;9.33;;;4.73;;
76846;SDS011;65813;49.546;8.644;2024-01-10T06:35:11;10.80;;;5.00;;
76846;SDS011;65813;49.546;8.644;2024-01-10T06:39:11;9.73;;;5.00;;
76846;SDS011;65813;49.546;8.644;2024-01-10T06:43:15;14.63;;;5.30;;
76846;SDS011;65813;49.546;8.644;2024-01-10T06:47:16;11.25;;;5.20;;
76846;SDS011;65813;49.546;8.644;2024-01-10T06:51:16;13.02;;;5.30;;
76846;SDS011;65813;49.546;8.644;2024-01-10T06:55:17;11.27;;;5.38;;
76846;SDS011;65813;49.546;8.644;2024-01-10T06:59:19;12.40;;;4.90;;
76846;SDS011;65813;49.546;8.644;2024-01-10T07:03:20;13.35;;;5.50;;
76846;SDS011;65813;49.546;8.644;2024-01-10T07:07:20;14.90;;;5.77;;
76846;SDS011;65813;49.546;8.644;2024-01-10T07:11:20;12.23;;;5.32;;
76846;SDS011;65813;49.546;8.644;2024-01-10T07:15:21;12.20;;;5.00;;
76846;SDS011;65813;49.546;8.644;2024-01-10T07:19:22;13.27;;;5.40;;
76846;SDS011;65813;49.546;8.644;2024-01-10T07:23:24;14.15;;;5.85;;
76846;SDS011;65813;49.546;8.644;2024-01-10T07:27:24;13.38;;;5.40;;
76846;SDS011;65813;49.546;8.644;2024-01-10T07:31:25;13.63;;;5.83;;
76846;SDS011;65813;49.546;8.644;2024-01-10T07:35:26;12.82;;;5.30;;
76846;SDS011;65813;49.546;8.644;2024-01-10T07:39:29;12.80;;;5.20;;
76846;SDS011;65813;49.546;8.644;2024-01-10T07:43:30;15.30;;;5.80;;
76846;SDS011;65813;49.546;8.644;2024-01-10T07:47:30;11.93;;;5.50;;
76846;SDS011;65813;49.546;8.644;2024-01-10T07:51:31;12.43;;;5.20;;
76846;SDS011;65813;49.546;8.644;2024-01-10T07:55:32;12.30;;;5.28;;
76846;SDS011;65813;49.546;8.644;2024-01-10T07:59:33;13.00;;;4.97;;
76846;SDS011;65813;49.546;8.644;2024-01-10T08:03:33;9.37;;;4.20;;
76846;SDS011;65813;49.546;8.644;2024-01-10T08:07:37;10.63;;;5.43;;
76846;SDS011;65813;49.546;8.644;2024-01-10T08:11:38;11.45;;;5.25;;
76846;SDS011;65813;49.546;8.644;2024-01-10T08:15:38;13.90;;;5.13;;
76846;SDS011;65813;49.546;8.644;2024-01-10T08:19:39;11.87;;;4.93;;
76846;SDS011;65813;49.546;8.644;2024-01-10T08:23:39;15.82;;;6.25;;
76846;SDS011;65813;49.546;8.644;2024-01-10T08:27:40;11.03;;;5.20;;
76846;SDS011;65813;49.546;8.644;2024-01-10T08:31:41;11.88;;;5.43;;
76846;SDS011;65813;49.546;8.644;2024-01-10T08:35:42;13.63;;;5.37;;
76846;SDS011;65813;49.546;8.644;2024-01-10T08:39:43;11.88;;;5.53;;
76846;SDS011;65813;49.546;8.644;2024-01-10T08:43:44;16.05;;;5.57;;
76846;SDS011;65813;49.546;8.644;2024-01-10T08:47:44;13.47;;;5.53;;
76846;SDS011;65813;49.546;8.644;2024-01-10T08:51:45;13.68;;;5.70;;
76846;SDS011;65813;49.546;8.644;2024-01-10T08:55:46;14.82;;;5.40;;
76846;SDS011;65813;49.546;8.644;2024-01-10T08:59:47;12.25;;;5.28;;
76846;SDS011;65813;49.546;8.644;2024-01-10T09:03:47;11.67;;;5.63;;
76846;SDS011;65813;49.546;8.644;2024-01-10T09:07:49;10.68;;;5.28;;
76846;SDS011;65813;49.546;8.644;2024-01-10T09:11:49;12.68;;;5.53;;
76846;SDS011;65813;49.546;8.644;2024-01-10T09:15:50;12.77;;;5.90;;
76846;SDS011;65813;49.546;8.644;2024-01-10T09:19:50;13.03;;;5.17;;
76846;SDS011;65813;49.546;8.644;2024-01-10T09:23:50;15.43;;;5.50;;
76846;SDS011;65813;49.546;8.644;2024-01-10T09:27:51;10.82;;;5.40;;
76846;SDS011;65813;49.546;8.644;2024-01-10T09:31:51;12.63;;;5.33;;
76846;SDS011;65813;49.546;8.644;2024-01-10T09:35:51;13.57;;;5.27;;
76846;SDS011;65813;49.546;8.644;2024-01-10T09:39:52;13.90;;;5.53;;
76846;SDS011;65813;49.546;8.644;2024-01-10T09:43:53;13.00;;;5.38;;
76846;SDS011;65813;49.546;8.644;2024-01-10T09:47:54;12.13;;;4.47;;
76846;SDS011;65813;49.546;8.644;2024-01-10T09:51:58;12.32;;;5.57;;
76846;SDS011;65813;49.546;8.644;2024-01-10T09:56:03;12.68;;;5.38;;
76846;SDS011;65813;49.546;8.644;2024-01-10T10:00:04;13.05;;;6.13;;
76846;SDS011;65813;49.546;8.644;2024-01-10T10:04:05;15.85;;;5.57;;
76846;SDS011;65813;49.546;8.644;2024-01-10T10:08:12;29.60;;;10.90;;
76846;SDS011;65813;49.546;8.644;2024-01-10T10:12:15;15.40;;;5.60;;
76846;SDS011;65813;49.546;8.644;2024-01-10T10:16:15;11.67;;;5.57;;
76846;SDS011;65813;49.546;8.644;2024-01-10T10:20:24;16.33;;;5.88;;
76846;SDS011;65813;49.546;8.644;2024-01-10T10:24:26;16.42;;;6.78;;
76846;SDS011;65813;49.546;8.644;2024-01-10T10:28:29;13.98;;;6.68;;
76846;SDS011;65813;49.546;8.644;2024-01-10T10:32:31;18.40;;;6.75;;
76846;SDS011;65813;49.546;8.644;2024-01-10T10:36:32;19.33;;;7.63;;
76846;SDS011;65813;49.546;8.644;2024-01-10T10:40:32;14.20;;;6.65;;
76846;SDS011;65813;49.546;8.644;2024-01-10T10:44:33;13.80;;;6.53;;
76846;SDS011;65813;49.546;8.644;2024-01-10T10:48:37;13.52;;;5.25;;
76846;SDS011;65813;49.546;8.644;2024-01-10T10:52:37;16.50;;;7.03;;
76846;SDS011;65813;49.546;8.644;2024-01-10T10:56:41;14.98;;;6.13;;
76846;SDS011;65813;49.546;8.644;2024-01-10T11:00:43;16.23;;;5.80;;
76846;SDS011;65813;49.546;8.644;2024-01-10T11:04:47;14.35;;;6.30;;
76846;SDS011;65813;49.546;8.644;2024-01-10T11:09:09;15.77;;;6.20;;
76846;SDS011;65813;49.546;8.644;2024-01-10T11:13:24;15.95;;;5.95;;
76846;SDS011;65813;49.546;8.644;2024-01-10T11:26:28;14.32;;;6.53;;
76846;SDS011;65813;49.546;8.644;2024-01-10T11:30:35;15.07;;;6.77;;
76846;SDS011;65813;49.546;8.644;2024-01-10T11:34:37;14.10;;;6.47;;
76846;SDS011;65813;49.546;8.644;2024-01-10T11:38:38;14.90;;;5.83;;
76846;SDS011;65813;49.546;8.644;2024-01-10T11:42:54;14.85;;;6.72;;
76846;SDS011;65813;49.546;8.644;2024-01-10T11:46:58;11.88;;;5.68;;
76846;SDS011;65813;49.546;8.644;2024-01-10T11:50:59;14.32;;;6.45;;
76846;SDS011;65813;49.546;8.644;2024-01-10T11:55:03;18.85;;;6.45;;
76846;SDS011;65813;49.546;8.644;2024-01-10T11:59:07;16.13;;;7.22;;
76846;SDS011;65813;49.546;8.644;2024-01-10T12:03:09;17.40;;;7.57;;
76846;SDS011;65813;49.546;8.644;2024-01-10T12:07:12;15.65;;;5.97;;
76846;SDS011;65813;49.546;8.644;2024-01-10T12:11:13;14.50;;;6.35;;
76846;SDS011;65813;49.546;8.644;2024-01-10T12:15:13;14.77;;;6.45;;
76846;SDS011;65813;49.546;8.644;2024-01-10T12:19:14;15.45;;;6.68;;
76846;SDS011;65813;49.546;8.644;2024-01-10T12:23:15;15.27;;;6.68;;
76846;SDS011;65813;49.546;8.644;2024-01-10T12:27:19;10.48;;;5.80;;
76846;SDS011;65813;49.546;8.644;2024-01-10T12:31:20;15.40;;;6.72;;
76846;SDS011;65813;49.546;8.644;2024-01-10T12:35:22;16.20;;;7.15;;
76846;SDS011;65813;49.546;8.644;2024-01-10T12:39:23;15.63;;;6.53;;
76846;SDS011;65813;49.546;8.644;2024-01-10T12:43:25;14.90;;;6.82;;
76846;SDS011;65813;49.546;8.644;2024-01-10T12:47:26;13.95;;;7.13;;
76846;SDS011;65813;49.546;8.644;2024-01-10T12:51:27;14.20;;;6.72;;
76846;SDS011;65813;49.546;8.644;2024-01-10T12:55:29;13.23;;;6.63;;
76846;SDS011;65813;49.546;8.644;2024-01-10T12:59:29;16.00;;;6.60;;
76846;SDS011;65813;49.546;8.644;2024-01-10T13:03:30;18.97;;;7.30;;
76846;SDS011;65813;49.546;8.644;2024-01-10T13:07:30;13.00;;;6.65;;
76846;SDS011;65813;49.546;8.644;2024-01-10T13:11:34;16.50;;;7.43;;
76846;SDS011;65813;49.546;8.644;2024-01-10T13:15:35;15.68;;;6.97;;
76846;SDS011;65813;49.546;8.644;2024-01-10T13:19:35;16.33;;;6.90;;
76846;SDS011;65813;49.546;8.644;2024-01-10T13:23:38;17.63;;;7.03;;
76846;SDS011;65813;49.546;8.644;2024-01-10T13:27:38;16.52;;;7.05;;
76846;SDS011;65813;49.546;8.644;2024-01-10T13:31:39;17.40;;;7.90;;
76846;SDS011;65813;49.546;8.644;2024-01-10T13:35:39;17.10;;;7.13;;
76846;SDS011;65813;49.546;8.644;2024-01-10T13:39:42;15.60;;;7.20;;
76846;SDS011;65813;49.546;8.644;2024-01-10T13:43:43;16.02;;;7.00;;
76846;SDS011;65813;49.546;8.644;2024-01-10T13:47:43;19.83;;;7.50;;
76846;SDS011;65813;49.546;8.644;2024-01-10T13:51:43;17.13;;;6.93;;
76846;SDS011;65813;49.546;8.644;2024-01-10T13:55:44;17.65;;;7.50;;
76846;SDS011;65813;49.546;8.644;2024-01-10T13:59:46;18.30;;;7.20;;
76846;SDS011;65813;49.546;8.644;2024-01-10T14:03:47;16.30;;;7.30;;
76846;SDS011;65813;49.546;8.644;2024-01-10T14:07:48;16.27;;;6.73;;
76846;SDS011;65813;49.546;8.644;2024-01-10T14:11:48;16.80;;;6.83;;
76846;SDS011;65813;49.546;8.644;2024-01-10T14:15:49;16.10;;;6.63;;
76846;SDS011;65813;49.546;8.644;2024-01-10T14:19:50;16.83;;;6.80;;
76846;SDS011;65813;49.546;8.644;2024-01-10T14:23:51;16.60;;;7.38;;
76846;SDS011;65813;49.546;8.644;2024-01-10T14:27:52;16.90;;;7.07;;
76846;SDS011;65813;49.546;8.644;2024-01-10T14:31:52;14.57;;;6.90;;
76846;SDS011;65813;49.546;8.644;2024-01-10T14:35:53;15.68;;;6.97;;
76846;SDS011;65813;49.546;8.644;2024-01-10T14:39:53;20.02;;;7.90;;
76846;SDS011;65813;49.546;8.644;2024-01-10T14:43:53;18.37;;;7.80;;
76846;SDS011;65813;49.546;8.644;2024-01-10T14:47:56;17.13;;;7.32;;
76846;SDS011;65813;49.546;8.644;2024-01-10T14:51:57;15.83;;;7.40;;
76846;SDS011;65813;49.546;8.644;2024-01-10T14:55:57;14.77;;;7.05;;
76846;SDS011;65813;49.546;8.644;2024-01-10T14:59:58;17.35;;;7.63;;
76846;SDS011;65813;49.546;8.644;2024-01-10T15:04:07;15.40;;;7.68;;
76846;SDS011;65813;49.546;8.644;2024-01-10T15:08:08;17.07;;;7.00;;
76846;SDS011;65813;49.546;8.644;2024-01-10T15:12:09;18.08;;;8.63;;
76846;SDS011;65813;49.546;8.644;2024-01-10T15:16:11;17.80;;;6.88;;
76846;SDS011;65813;49.546;8.644;2024-01-10T15:20:11;14.80;;;6.63;;
76846;SDS011;65813;49.546;8.644;2024-01-10T15:24:12;17.67;;;6.60;;
76846;SDS011;65813;49.546;8.644;2024-01-10T15:28:12;14.73;;;6.43;;
76846;SDS011;65813;49.546;8.644;2024-01-10T15:32:12;14.87;;;6.63;;
76846;SDS011;65813;49.546;8.644;2024-01-10T15:36:13;18.67;;;7.53;;
76846;SDS011;65813;49.546;8.644;2024-01-10T15:40:14;17.27;;;7.32;;
76846;SDS011;65813;49.546;8.644;2024-01-10T15:44:14;19.87;;;8.97;;
76846;SDS011;65813;49.546;8.644;2024-01-10T15:48:15;18.23;;;7.30;;
76846;SDS011;65813;49.546;8.644;2024-01-10T15:52:19;19.20;;;7.53;;
76846;SDS011;65813;49.546;8.644;2024-01-10T15:56:26;17.00;;;7.22;;
76846;SDS011;65813;49.546;8.644;2024-01-10T16:00:26;17.80;;;7.45;;
76846;SDS011;65813;49.546;8.644;2024-01-10T16:04:30;15.50;;;6.45;;
76846;SDS011;65813;49.546;8.644;2024-01-10T16:08:30;16.43;;;7.87;;
76846;SDS011;65813;49.546;8.644;2024-01-10T16:12:30;16.53;;;6.47;;
76846;SDS011;65813;49.546;8.644;2024-01-10T16:16:31;14.27;;;6.93;;
76846;SDS011;65813;49.546;8.644;2024-01-10T16:20:32;18.95;;;8.10;;
76846;SDS011;65813;49.546;8.644;2024-01-10T16:24:33;16.73;;;7.73;;
76846;SDS011;65813;49.546;8.644;2024-01-10T16:28:33;14.55;;;6.85;;
76846;SDS011;65813;49.546;8.644;2024-01-10T16:32:34;16.23;;;7.38;;
76846;SDS011;65813;49.546;8.644;2024-01-10T16:36:34;19.07;;;7.70;;
76846;SDS011;65813;49.546;8.644;2024-01-10T16:40:35;15.10;;;6.77;;
76846;SDS011;65813;49.546;8.644;2024-01-10T16:44:35;16.43;;;6.87;;
76846;SDS011;65813;49.546;8.644;2024-01-10T16:48:35;15.67;;;6.30;;
76846;SDS011;65813;49.546;8.644;2024-01-10T16:52:36;15.97;;;6.43;;
76846;SDS011;65813;49.546;8.644;2024-01-10T16:56:38;16.17;;;7.75;;
76846;SDS011;65813;49.546;8.644;2024-01-10T17:00:38;17.97;;;7.83;;
76846;SDS011;65813;49.546;8.644;2024-01-10T17:04:41;19.03;;;7.43;;
76846;SDS011;65813;49.546;8.644;2024-01-10T17:08:48;16.38;;;7.13;;
76846;SDS011;65813;49.546;8.644;2024-01-10T17:12:48;17.95;;;7.63;;
76846;SDS011;65813;49.546;8.644;2024-01-10T17:17:01;20.53;;;8.43;;
76846;SDS011;65813;49.546;8.644;2024-01-10T17:21:01;21.77;;;8.98;;
76846;SDS011;65813;49.546;8.644;2024-01-10T17:25:01;20.47;;;9.03;;
76846;SDS011;65813;49.546;8.644;2024-01-10T17:29:02;17.60;;;7.97;;
76846;SDS011;65813;49.546;8.644;2024-01-10T17:33:08;19.63;;;8.02;;
76846;SDS011;65813;49.546;8.644;2024-01-10T17:37:12;16.85;;;7.68;;
76846;SDS011;65813;49.546;8.644;2024-01-10T17:41:13;16.50;;;8.10;;
76846;SDS011;65813;49.546;8.644;2024-01-10T17:45:13;18.88;;;8.00;;
76846;SDS011;65813;49.546;8.644;2024-01-10T17:49:14;17.98;;;8.52;;
76846;SDS011;65813;49.546;8.644;2024-01-10T17:53:14;19.83;;;7.90;;
76846;SDS011;65813;49.546;8.644;2024-01-10T17:57:14;16.63;;;8.00;;
76846;SDS011;65813;49.546;8.644;2024-01-10T18:01:19;17.83;;;8.00;;
76846;SDS011;65813;49.546;8.644;2024-01-10T18:05:20;18.50;;;8.48;;
76846;SDS011;65813;49.546;8.644;2024-01-10T18:09:20;20.33;;;8.73;;
76846;SDS011;65813;49.546;8.644;2024-01-10T18:13:20;21.20;;;8.40;;
76846;SDS011;65813;49.546;8.644;2024-01-10T18:17:21;18.15;;;9.30;;
76846;SDS011;65813;49.546;8.644;2024-01-10T18:21:22;20.77;;;8.17;;
76846;SDS011;65813;49.546;8.644;2024-01-10T18:25:22;24.50;;;9.23;;
76846;SDS011;65813;49.546;8.644;2024-01-10T18:29:22;23.33;;;9.30;;
76846;SDS011;65813;49.546;8.644;2024-01-10T18:33:23;18.35;;;8.70;;
76846;SDS011;65813;49.546;8.644;2024-01-10T18:37:23;23.77;;;8.67;;
76846;SDS011;65813;49.546;8.644;2024-01-10T18:41:24;18.27;;;8.07;;
76846;SDS011;65813;49.546;8.644;2024-01-10T18:45:25;21.10;;;9.50;;
76846;SDS011;65813;49.546;8.644;2024-01-10T18:49:27;20.02;;;9.07;;
76846;SDS011;65813;49.546;8.644;2024-01-10T18:53:27;17.05;;;7.88;;
76846;SDS011;65813;49.546;8.644;2024-01-10T18:57:28;18.80;;;8.93;;
76846;SDS011;65813;49.546;8.644;2024-01-10T19:01:28;16.55;;;8.50;;
76846;SDS011;65813;49.546;8.644;2024-01-10T19:05:29;18.90;;;8.07;;
76846;SDS011;65813;49.546;8.644;2024-01-10T19:09:29;20.73;;;9.20;;
76846;SDS011;65813;49.546;8.644;2024-01-10T19:13:31;22.75;;;9.45;;
76846;SDS011;65813;49.546;8.644;2024-01-10T19:17:38;21.35;;;10.02;;
76846;SDS011;65813;49.546;8.644;2024-01-10T19:21:39;20.52;;;8.80;;
76846;SDS011;65813;49.546;8.644;2024-01-10T19:25:39;18.50;;;9.70;;
76846;SDS011;65813;49.546;8.644;2024-01-10T19:29:40;23.52;;;9.82;;
76846;SDS011;65813;49.546;8.644;2024-01-10T19:33:40;19.97;;;9.50;;
76846;SDS011;65813;49.546;8.644;2024-01-10T19:37:41;20.23;;;9.55;;
76846;SDS011;65813;49.546;8.644;2024-01-10T19:41:42;24.30;;;9.67;;
76846;SDS011;65813;49.546;8.644;2024-01-10T19:45:42;21.23;;;8.70;;
76846;SDS011;65813;49.546;8.644;2024-01-10T19:49:43;21.23;;;8.93;;
76846;SDS011;65813;49.546;8.644;2024-01-10T19:53:43;21.80;;;9.40;;
76846;SDS011;65813;49.546;8.644;2024-01-10T19:57:48;21.17;;;9.35;;
76846;SDS011;65813;49.546;8.644;2024-01-10T20:01:49;21.92;;;10.18;;
76846;SDS011;65813;49.546;8.644;2024-01-10T20:05:49;20.67;;;9.18;;
76846;SDS011;65813;49.546;8.644;2024-01-10T20:09:50;23.50;;;9.93;;
76846;SDS011;65813;49.546;8.644;2024-01-10T20:13:50;20.75;;;9.90;;
76846;SDS011;65813;49.546;8.644;2024-01-10T20:17:51;20.73;;;9.93;;
76846;SDS011;65813;49.546;8.644;2024-01-10T20:21:51;22.42;;;9.25;;
76846;SDS011;65813;49.546;8.644;2024-01-10T20:25:52;25.27;;;10.27;;
76846;SDS011;65813;49.546;8.644;2024-01-10T20:29:53;20.88;;;9.30;;
76846;SDS011;65813;49.546;8.644;2024-01-10T20:33:53;18.23;;;9.30;;
76846;SDS011;65813;49.546;8.644;2024-01-10T20:37:57;22.02;;;10.38;;
76846;SDS011;65813;49.546;8.644;2024-01-10T20:41:57;23.27;;;11.50;;
76846;SDS011;65813;49.546;8.644;2024-01-10T20:45:58;21.02;;;9.90;;
76846;SDS011;65813;49.546;8.644;2024-01-10T20:49:59;19.77;;;9.57;;
76846;SDS011;65813;49.546;8.644;2024-01-10T20:54:00;18.30;;;8.57;;
76846;SDS011;65813;49.546;8.644;2024-01-10T20:58:01;17.97;;;9.03;;
76846;SDS011;65813;49.546;8.644;2024-01-10T21:02:01;25.05;;;9.52;;
76846;SDS011;65813;49.546;8.644;2024-01-10T21:06:02;22.10;;;10.20;;
76846;SDS011;65813;49.546;8.644;2024-01-10T21:10:04;20.15;;;8.95;;
76846;SDS011;65813;49.546;8.644;2024-01-10T21:14:04;23.00;;;10.43;;
76846;SDS011;65813;49.546;8.644;2024-01-10T21:18:06;21.13;;;10.00;;
76846;SDS011;65813;49.546;8.644;2024-01-10T21:22:08;20.77;;;9.38;;
76846;SDS011;65813;49.546;8.644;2024-01-10T21:26:09;20.92;;;10.48;;
76846;SDS011;65813;49.546;8.644;2024-01-10T21:30:09;22.80;;;10.18;;
76846;SDS011;65813;49.546;8.644;2024-01-10T21:34:11;20.63;;;9.32;;
76846;SDS011;65813;49.546;8.644;2024-01-10T21:38:13;21.50;;;10.15;;
76846;SDS011;65813;49.546;8.644;2024-01-10T21:42:13;18.53;;;8.10;;
76846;SDS011;65813;49.546;8.644;2024-01-10T21:46:13;19.77;;;10.43;;
76846;SDS011;65813;49.546;8.644;2024-01-10T21:50:14;20.17;;;9.70;;
76846;SDS011;65813;49.546;8.644;2024-01-10T21:54:15;18.63;;;8.73;;
76846;SDS011;65813;49.546;8.644;2024-01-10T21:58:15;21.73;;;8.97;;
76846;SDS011;65813;49.546;8.644;2024-01-10T22:02:15;19.70;;;9.37;;
76846;SDS011;65813;49.546;8.644;2024-01-10T22:06:16;19.35;;;8.82;;
76846;SDS011;65813;49.546;8.644;2024-01-10T22:10:16;21.37;;;9.80;;
76846;SDS011;65813;49.546;8.644;2024-01-10T22:14:16;22.77;;;10.23;;
76846;SDS011;65813;49.546;8.644;2024-01-10T22:43:18;22.23;;;9.68;;
76846;SDS011;65813;49.546;8.644;2024-01-10T22:47:18;22.93;;;9.23;;
76846;SDS011;65813;49.546;8.644;2024-01-10T22:51:18;17.80;;;8.60;;
76846;SDS011;65813;49.546;8.644;2024-01-10T22:55:19;23.93;;;10.67;;
76846;SDS011;65813;49.546;8.644;2024-01-10T22:59:19;26.43;;;10.33;;
76846;SDS011;65813;49.546;8.644;2024-01-10T23:03:20;23.45;;;9.98;;
76846;SDS011;65813;49.546;8.644;2024-01-10T23:07:20;23.07;;;10.20;;
76846;SDS011;65813;49.546;8.644;2024-01-10T23:11:21;18.27;;;8.73;;
76846;SDS011;65813;49.546;8.644;2024-01-10T23:15:21;17.07;;;8.13;;
76846;SDS011;65813;49.546;8.644;2024-01-10T23:19:23;22.73;;;8.52;;
76846;SDS011;65813;49.546;8.644;2024-01-10T23:23:27;17.48;;;8.95;;
76846;SDS011;65813;49.546;8.644;2024-01-10T23:27:27;21.77;;;9.77;;
76846;SDS011;65813;49.546;8.644;2024-01-10T23:31:27;15.47;;;8.03;;
